ESSV

Visby Airport

Visby, Sweden
METAR ESSV 172120Z AUTO 03002KT 9999 OVC032/// M01/M05 Q1024
Observed Flight Rules
Feb-17 @ 21:20 UTC (16 minutes ago) Visual Flight Rules
Wind Visibility Clouds
30° at 2 knots 10,000+ meters
  • Overcast at 3,200' AGL
Temperatures Readings
Current -1°C / 30°F
Dewpoint -5°C / 23°F
Humidity 75%
Altimeter 30.24" Hg
Pressure 1024 hPa
Elevation 47
METAR ESSV 172120Z AUTO 03002KT 9999 OVC032/// M01/M05 Q1024
Observed Flight Rules
Feb-17 @ 21:20 UTC
(16 minutes ago)
VFR
Wind Visibility
30° at 2 knots 10,000+ meters
Clouds
  • Overcast at 3,200' AGL
Temperature Dewpoint
-1°C / 30°F -5°C / 23°F
Humidity Altimeter Pressure
75% 30.24" Hg 1024 hPa